sensor_id;sensor_type;location;lat;lon;timestamp;pressure;altitude;pressure_sealevel;temperature;humidity
7532;BME280;3807;49.030;8.714;2023-04-01T00:00:55;97918.16;;;11.28;69.49
7532;BME280;3807;49.030;8.714;2023-04-01T00:03:21;97917.50;;;11.53;68.33
7532;BME280;3807;49.030;8.714;2023-04-01T00:05:47;97924.16;;;11.13;69.81
7532;BME280;3807;49.030;8.714;2023-04-01T00:08:13;97907.50;;;11.36;69.05
7532;BME280;3807;49.030;8.714;2023-04-01T00:10:38;97903.13;;;11.24;69.68
7532;BME280;3807;49.030;8.714;2023-04-01T00:13:04;97912.84;;;11.03;69.93
7532;BME280;3807;49.030;8.714;2023-04-01T00:15:30;97917.03;;;11.18;69.95
7532;BME280;3807;49.030;8.714;2023-04-01T00:17:55;97906.13;;;11.16;69.55
7532;BME280;3807;49.030;8.714;2023-04-01T00:20:21;97912.56;;;11.07;70.10
7532;BME280;3807;49.030;8.714;2023-04-01T00:22:46;97920.84;;;11.11;70.10
7532;BME280;3807;49.030;8.714;2023-04-01T00:25:12;97914.34;;;10.91;69.60
7532;BME280;3807;49.030;8.714;2023-04-01T00:27:37;97918.34;;;10.81;70.75
7532;BME280;3807;49.030;8.714;2023-04-01T00:30:03;97907.28;;;10.96;70.66
7532;BME280;3807;49.030;8.714;2023-04-01T00:32:29;97910.91;;;10.92;70.11
7532;BME280;3807;49.030;8.714;2023-04-01T00:34:55;97905.44;;;10.98;70.23
7532;BME280;3807;49.030;8.714;2023-04-01T00:37:21;97912.44;;;10.94;70.19
7532;BME280;3807;49.030;8.714;2023-04-01T00:39:46;97905.03;;;11.20;69.68
7532;BME280;3807;49.030;8.714;2023-04-01T00:42:12;97918.03;;;11.15;69.74
7532;BME280;3807;49.030;8.714;2023-04-01T00:44:39;97921.16;;;11.35;69.14
7532;BME280;3807;49.030;8.714;2023-04-01T00:47:05;97912.03;;;11.02;70.08
7532;BME280;3807;49.030;8.714;2023-04-01T00:49:33;97922.84;;;10.91;70.33
7532;BME280;3807;49.030;8.714;2023-04-01T00:52:02;97928.69;;;11.08;69.89
7532;BME280;3807;49.030;8.714;2023-04-01T00:54:29;97918.25;;;11.27;69.35
7532;BME280;3807;49.030;8.714;2023-04-01T00:56:58;97922.84;;;10.91;70.30
7532;BME280;3807;49.030;8.714;2023-04-01T00:59:30;97911.00;;;11.05;69.91
7532;BME280;3807;49.030;8.714;2023-04-01T01:01:59;97913.84;;;11.00;69.98
7532;BME280;3807;49.030;8.714;2023-04-01T01:04:30;97910.50;;;11.14;69.73
7532;BME280;3807;49.030;8.714;2023-04-01T01:12:31;97909.97;;;11.23;69.31
7532;BME280;3807;49.030;8.714;2023-04-01T01:28:44;97913.09;;;10.98;69.63
7532;BME280;3807;49.030;8.714;2023-04-01T01:34:26;97904.13;;;11.07;69.69
7532;BME280;3807;49.030;8.714;2023-04-01T01:36:59;97899.84;;;11.07;69.63
7532;BME280;3807;49.030;8.714;2023-04-01T01:39:30;97903.47;;;11.03;69.64
7532;BME280;3807;49.030;8.714;2023-04-01T01:42:00;97901.81;;;10.88;70.32
7532;BME280;3807;49.030;8.714;2023-04-01T01:44:28;97896.81;;;10.86;70.39
7532;BME280;3807;49.030;8.714;2023-04-01T01:46:56;97896.53;;;10.91;70.21
7532;BME280;3807;49.030;8.714;2023-04-01T01:49:22;97895.66;;;10.92;70.21
7532;BME280;3807;49.030;8.714;2023-04-01T01:51:48;97883.09;;;10.89;70.29
7532;BME280;3807;49.030;8.714;2023-04-01T01:54:15;97880.44;;;11.05;69.82
7532;BME280;3807;49.030;8.714;2023-04-01T01:56:45;97893.19;;;11.05;69.70
7532;BME280;3807;49.030;8.714;2023-04-01T01:59:12;97889.81;;;11.04;69.98
7532;BME280;3807;49.030;8.714;2023-04-01T02:01:42;97895.66;;;10.92;70.36
7532;BME280;3807;49.030;8.714;2023-04-01T02:04:11;97890.28;;;11.11;69.82
7532;BME280;3807;49.030;8.714;2023-04-01T02:06:43;97888.66;;;10.95;70.34
7532;BME280;3807;49.030;8.714;2023-04-01T02:09:11;97878.62;;;10.92;70.69
7532;BME280;3807;49.030;8.714;2023-04-01T02:11:48;97880.44;;;11.05;70.41
7532;BME280;3807;49.030;8.714;2023-04-01T02:14:17;97887.38;;;11.03;70.33
7532;BME280;3807;49.030;8.714;2023-04-01T02:16:51;97880.34;;;10.92;70.73
7532;BME280;3807;49.030;8.714;2023-04-01T02:19:18;97872.88;;;10.75;71.06
7532;BME280;3807;49.030;8.714;2023-04-01T02:21:50;97888.69;;;10.80;71.24
7532;BME280;3807;49.030;8.714;2023-04-01T02:24:17;97891.31;;;10.64;71.54
7532;BME280;3807;49.030;8.714;2023-04-01T02:26:46;97886.94;;;10.66;71.66
7532;BME280;3807;49.030;8.714;2023-04-01T02:29:12;97895.41;;;10.81;70.91
7532;BME280;3807;49.030;8.714;2023-04-01T02:31:38;97883.88;;;10.75;70.82
7532;BME280;3807;49.030;8.714;2023-04-01T02:34:05;97884.31;;;10.67;70.89
7532;BME280;3807;49.030;8.714;2023-04-01T02:36:31;97882.31;;;10.72;70.69
7532;BME280;3807;49.030;8.714;2023-04-01T02:38:57;97873.59;;;10.77;70.76
7532;BME280;3807;49.030;8.714;2023-04-01T02:41:27;97866.75;;;10.77;69.87
7532;BME280;3807;49.030;8.714;2023-04-01T02:43:53;97888.19;;;11.03;69.83
7532;BME280;3807;49.030;8.714;2023-04-01T02:46:18;97884.25;;;10.83;70.35
7532;BME280;3807;49.030;8.714;2023-04-01T02:48:43;97881.31;;;10.75;70.11
7532;BME280;3807;49.030;8.714;2023-04-01T02:51:09;97875.50;;;10.73;70.44
7532;BME280;3807;49.030;8.714;2023-04-01T02:53:34;97868.56;;;10.61;70.45
7532;BME280;3807;49.030;8.714;2023-04-01T02:55:59;97882.78;;;10.79;70.02
7532;BME280;3807;49.030;8.714;2023-04-01T02:58:25;97871.16;;;10.75;70.20
7532;BME280;3807;49.030;8.714;2023-04-01T03:00:50;97870.78;;;10.81;69.63
7532;BME280;3807;49.030;8.714;2023-04-01T03:03:15;97871.31;;;10.72;69.93
7532;BME280;3807;49.030;8.714;2023-04-01T03:05:41;97859.06;;;10.79;69.60
7532;BME280;3807;49.030;8.714;2023-04-01T03:08:06;97870.00;;;10.95;69.13
7532;BME280;3807;49.030;8.714;2023-04-01T03:10:32;97867.84;;;10.73;69.66
7532;BME280;3807;49.030;8.714;2023-04-01T03:12:57;97857.94;;;10.68;70.05
7532;BME280;3807;49.030;8.714;2023-04-01T03:15:22;97873.72;;;10.59;69.79
7532;BME280;3807;49.030;8.714;2023-04-01T03:17:48;97873.13;;;10.70;69.81
7532;BME280;3807;49.030;8.714;2023-04-01T03:20:14;97858.59;;;10.86;69.34
7532;BME280;3807;49.030;8.714;2023-04-01T03:22:40;97869.25;;;10.79;69.71
7532;BME280;3807;49.030;8.714;2023-04-01T03:25:06;97869.78;;;10.39;70.51
7532;BME280;3807;49.030;8.714;2023-04-01T03:27:33;97871.19;;;10.59;69.85
7532;BME280;3807;49.030;8.714;2023-04-01T03:29:59;97873.38;;;10.65;69.65
7532;BME280;3807;49.030;8.714;2023-04-01T03:32:24;97873.81;;;10.88;69.39
7532;BME280;3807;49.030;8.714;2023-04-01T03:34:49;97878.34;;;10.53;69.56
7532;BME280;3807;49.030;8.714;2023-04-01T03:37:15;97871.97;;;10.45;70.45
7532;BME280;3807;49.030;8.714;2023-04-01T03:39:40;97876.88;;;10.48;70.55
7532;BME280;3807;49.030;8.714;2023-04-01T03:42:05;97874.81;;;10.55;70.27
7532;BME280;3807;49.030;8.714;2023-04-01T03:44:33;97879.69;;;10.74;69.83
7532;BME280;3807;49.030;8.714;2023-04-01T03:46:58;97876.91;;;10.63;69.92
7532;BME280;3807;49.030;8.714;2023-04-01T03:49:24;97880.47;;;10.60;69.99
7532;BME280;3807;49.030;8.714;2023-04-01T03:51:49;97882.44;;;10.85;69.17
7532;BME280;3807;49.030;8.714;2023-04-01T03:54:14;97875.13;;;10.65;69.58
7532;BME280;3807;49.030;8.714;2023-04-01T03:56:40;97879.69;;;10.74;69.53
7532;BME280;3807;49.030;8.714;2023-04-01T03:59:07;97875.94;;;10.65;69.47
7532;BME280;3807;49.030;8.714;2023-04-01T04:01:32;97882.81;;;10.63;69.67
7532;BME280;3807;49.030;8.714;2023-04-01T04:03:58;97866.87;;;10.76;69.22
7532;BME280;3807;49.030;8.714;2023-04-01T04:06:24;97869.69;;;10.71;69.56
7532;BME280;3807;49.030;8.714;2023-04-01T04:08:50;97871.75;;;10.64;69.62
7532;BME280;3807;49.030;8.714;2023-04-01T04:11:16;97868.63;;;10.59;69.72
7532;BME280;3807;49.030;8.714;2023-04-01T04:13:42;97873.81;;;10.58;69.45
7532;BME280;3807;49.030;8.714;2023-04-01T04:16:08;97870.16;;;10.47;69.67
7532;BME280;3807;49.030;8.714;2023-04-01T04:18:35;97865.31;;;10.73;69.04
7532;BME280;3807;49.030;8.714;2023-04-01T04:21:00;97865.81;;;10.49;70.01
7532;BME280;3807;49.030;8.714;2023-04-01T04:23:26;97875.81;;;10.53;69.47
7532;BME280;3807;49.030;8.714;2023-04-01T04:28:25;97878.66;;;10.62;69.13
7532;BME280;3807;49.030;8.714;2023-04-01T04:30:51;97879.44;;;10.79;68.95
7532;BME280;3807;49.030;8.714;2023-04-01T04:33:16;97875.78;;;10.83;68.72
7532;BME280;3807;49.030;8.714;2023-04-01T04:35:42;97882.97;;;10.76;68.62
7532;BME280;3807;49.030;8.714;2023-04-01T04:38:07;97875.59;;;10.71;68.92
7532;BME280;3807;49.030;8.714;2023-04-01T04:40:32;97875.69;;;10.40;69.79
7532;BME280;3807;49.030;8.714;2023-04-01T04:42:58;97870.66;;;10.68;69.28
7532;BME280;3807;49.030;8.714;2023-04-01T04:45:23;97868.41;;;10.78;68.51
7532;BME280;3807;49.030;8.714;2023-04-01T04:47:48;97873.81;;;10.58;69.46
7532;BME280;3807;49.030;8.714;2023-04-01T04:50:14;97874.47;;;10.61;68.88
7532;BME280;3807;49.030;8.714;2023-04-01T04:52:39;97866.84;;;10.61;68.71
7532;BME280;3807;49.030;8.714;2023-04-01T04:55:05;97858.69;;;10.70;68.72
7532;BME280;3807;49.030;8.714;2023-04-01T04:57:31;97853.38;;;10.73;68.86
7532;BME280;3807;49.030;8.714;2023-04-01T04:59:56;97855.09;;;10.59;68.86
7532;BME280;3807;49.030;8.714;2023-04-01T05:02:21;97865.47;;;10.70;68.77
7532;BME280;3807;49.030;8.714;2023-04-01T05:04:46;97857.97;;;10.53;69.16
7532;BME280;3807;49.030;8.714;2023-04-01T05:07:12;97857.38;;;10.63;68.65
7532;BME280;3807;49.030;8.714;2023-04-01T05:09:37;97860.50;;;10.68;68.67
7532;BME280;3807;49.030;8.714;2023-04-01T05:12:03;97860.28;;;10.57;68.93
7532;BME280;3807;49.030;8.714;2023-04-01T05:14:28;97855.50;;;10.67;68.62
7532;BME280;3807;49.030;8.714;2023-04-01T05:16:54;97840.75;;;10.58;68.66
7532;BME280;3807;49.030;8.714;2023-04-01T05:19:19;97856.72;;;10.60;68.70
7532;BME280;3807;49.030;8.714;2023-04-01T05:21:45;97844.59;;;10.93;68.04
7532;BME280;3807;49.030;8.714;2023-04-01T05:24:10;97838.88;;;10.90;67.90
7532;BME280;3807;49.030;8.714;2023-04-01T05:26:35;97848.88;;;10.79;68.04
7532;BME280;3807;49.030;8.714;2023-04-01T05:29:03;97849.34;;;10.85;67.99
7532;BME280;3807;49.030;8.714;2023-04-01T05:31:28;97839.78;;;10.75;68.31
7532;BME280;3807;49.030;8.714;2023-04-01T05:33:54;97847.69;;;10.84;68.33
7532;BME280;3807;49.030;8.714;2023-04-01T05:36:20;97840.12;;;10.83;68.30
7532;BME280;3807;49.030;8.714;2023-04-01T05:38:46;97832.22;;;11.02;67.67
7532;BME280;3807;49.030;8.714;2023-04-01T05:41:12;97835.41;;;10.91;68.01
7532;BME280;3807;49.030;8.714;2023-04-01T05:43:39;97841.56;;;10.72;68.59
7532;BME280;3807;49.030;8.714;2023-04-01T05:46:06;97840.94;;;10.69;68.54
7532;BME280;3807;49.030;8.714;2023-04-01T05:48:33;97840.91;;;10.55;69.00
7532;BME280;3807;49.030;8.714;2023-04-01T05:51:00;97840.91;;;10.55;69.25
7532;BME280;3807;49.030;8.714;2023-04-01T05:53:25;97845.09;;;10.56;69.39
7532;BME280;3807;49.030;8.714;2023-04-01T05:55:51;97850.28;;;10.54;69.62
7532;BME280;3807;49.030;8.714;2023-04-01T05:58:16;97849.63;;;10.51;70.14
7532;BME280;3807;49.030;8.714;2023-04-01T06:00:42;97851.84;;;10.57;70.00
7532;BME280;3807;49.030;8.714;2023-04-01T06:03:07;97857.94;;;10.68;69.55
7532;BME280;3807;49.030;8.714;2023-04-01T06:05:40;97853.97;;;10.79;69.28
7532;BME280;3807;49.030;8.714;2023-04-01T06:08:13;97864.00;;;10.52;70.56
7532;BME280;3807;49.030;8.714;2023-04-01T06:14:18;97853.22;;;10.77;69.67
7532;BME280;3807;49.030;8.714;2023-04-01T06:19:42;97857.72;;;10.43;71.26
7532;BME280;3807;49.030;8.714;2023-04-01T06:22:27;97848.50;;;10.24;71.85
7532;BME280;3807;49.030;8.714;2023-04-01T06:27:57;97863.78;;;10.40;71.35
7532;BME280;3807;49.030;8.714;2023-04-01T06:38:25;97866.97;;;10.44;71.67
7532;BME280;3807;49.030;8.714;2023-04-01T06:41:26;97877.28;;;10.57;71.36
7532;BME280;3807;49.030;8.714;2023-04-01T06:46:45;97874.75;;;10.57;71.29
7532;BME280;3807;49.030;8.714;2023-04-01T06:49:34;97876.75;;;10.66;71.01
7532;BME280;3807;49.030;8.714;2023-04-01T06:55:09;97876.16;;;10.46;71.62
7532;BME280;3807;49.030;8.714;2023-04-01T06:57:47;97876.00;;;10.18;73.25
7532;BME280;3807;49.030;8.714;2023-04-01T07:00:22;97877.16;;;10.28;72.89
7532;BME280;3807;49.030;8.714;2023-04-01T07:03:05;97878.00;;;10.59;71.44
7532;BME280;3807;49.030;8.714;2023-04-01T07:05:33;97873.69;;;10.45;72.06
7532;BME280;3807;49.030;8.714;2023-04-01T07:08:02;97884.22;;;10.39;72.60
7532;BME280;3807;49.030;8.714;2023-04-01T07:10:52;97886.50;;;10.43;72.25
7532;BME280;3807;49.030;8.714;2023-04-01T07:13:46;97882.06;;;10.47;72.20
7532;BME280;3807;49.030;8.714;2023-04-01T07:16:15;97878.03;;;10.29;72.87
7532;BME280;3807;49.030;8.714;2023-04-01T07:18:56;97884.13;;;10.40;72.87
7532;BME280;3807;49.030;8.714;2023-04-01T07:21:27;97881.81;;;10.52;71.85
7532;BME280;3807;49.030;8.714;2023-04-01T07:23:57;97883.91;;;10.59;71.72
7532;BME280;3807;49.030;8.714;2023-04-01T07:26:25;97878.22;;;10.40;72.51
7532;BME280;3807;49.030;8.714;2023-04-01T07:28:52;97886.47;;;10.59;71.71
7532;BME280;3807;49.030;8.714;2023-04-01T07:34:23;97882.50;;;10.84;70.82
7532;BME280;3807;49.030;8.714;2023-04-01T07:36:58;97881.19;;;10.62;71.65
7532;BME280;3807;49.030;8.714;2023-04-01T07:39:48;97889.00;;;10.29;73.79
7532;BME280;3807;49.030;8.714;2023-04-01T07:42:42;97887.59;;;10.39;73.69
7532;BME280;3807;49.030;8.714;2023-04-01T07:50:54;97893.75;;;9.88;76.33
7532;BME280;3807;49.030;8.714;2023-04-01T07:56:10;97898.91;;;10.18;75.38
7532;BME280;3807;49.030;8.714;2023-04-01T07:59:02;97909.53;;;10.26;75.26
7532;BME280;3807;49.030;8.714;2023-04-01T08:01:38;97914.44;;;10.29;74.89
7532;BME280;3807;49.030;8.714;2023-04-01T08:06:58;97905.81;;;10.32;75.00
7532;BME280;3807;49.030;8.714;2023-04-01T08:09:45;97897.47;;;10.30;75.33
7532;BME280;3807;49.030;8.714;2023-04-01T08:12:22;97908.12;;;9.73;78.39
7532;BME280;3807;49.030;8.714;2023-04-01T08:15:26;97896.06;;;10.08;76.50
7532;BME280;3807;49.030;8.714;2023-04-01T08:23:15;97896.13;;;10.22;75.50
7532;BME280;3807;49.030;8.714;2023-04-01T08:28:38;97889.41;;;9.74;78.97
7532;BME280;3807;49.030;8.714;2023-04-01T08:31:09;97889.75;;;9.84;78.53
7532;BME280;3807;49.030;8.714;2023-04-01T08:33:37;97896.75;;;10.42;75.04
7532;BME280;3807;49.030;8.714;2023-04-01T08:36:21;97900.09;;;10.58;74.54
7532;BME280;3807;49.030;8.714;2023-04-01T08:38:57;97890.41;;;10.49;74.46
7532;BME280;3807;49.030;8.714;2023-04-01T08:44:39;97886.94;;;10.66;73.58
7532;BME280;3807;49.030;8.714;2023-04-01T08:50:31;97902.53;;;10.14;77.25
7532;BME280;3807;49.030;8.714;2023-04-01T08:56:18;97897.00;;;10.53;75.07
7532;BME280;3807;49.030;8.714;2023-04-01T09:12:34;97891.94;;;10.37;76.99
7532;BME280;3807;49.030;8.714;2023-04-01T09:26:12;97900.09;;;10.58;76.79
7532;BME280;3807;49.030;8.714;2023-04-01T09:42:45;97911.09;;;10.59;76.47
7532;BME280;3807;49.030;8.714;2023-04-01T09:45:27;97903.94;;;10.65;75.79
7532;BME280;3807;49.030;8.714;2023-04-01T09:48:09;97901.09;;;10.56;76.74
7532;BME280;3807;49.030;8.714;2023-04-01T09:53:57;97906.59;;;10.64;77.46
7532;BME280;3807;49.030;8.714;2023-04-01T10:05:19;97913.34;;;10.79;76.63
7532;BME280;3807;49.030;8.714;2023-04-01T10:16:17;97919.81;;;10.85;76.00
7532;BME280;3807;49.030;8.714;2023-04-01T10:35:57;97948.59;;;11.01;76.28
7532;BME280;3807;49.030;8.714;2023-04-01T10:38:44;97935.47;;;10.93;75.81
7532;BME280;3807;49.030;8.714;2023-04-01T10:47:39;97936.81;;;11.43;75.04
7532;BME280;3807;49.030;8.714;2023-04-01T11:01:48;97941.41;;;11.08;76.77
7532;BME280;3807;49.030;8.714;2023-04-01T11:15:49;97938.03;;;11.07;76.81
7532;BME280;3807;49.030;8.714;2023-04-01T11:31:47;97961.56;;;11.41;75.14
7532;BME280;3807;49.030;8.714;2023-04-01T11:42:57;97968.47;;;11.39;76.23
7532;BME280;3807;49.030;8.714;2023-04-01T11:45:36;97976.06;;;11.40;76.99
7532;BME280;3807;49.030;8.714;2023-04-01T11:51:21;97966.31;;;11.47;76.97
7532;BME280;3807;49.030;8.714;2023-04-01T11:57:06;97970.84;;;11.42;77.77
7532;BME280;3807;49.030;8.714;2023-04-01T12:08:01;98001.34;;;11.43;78.62
7532;BME280;3807;49.030;8.714;2023-04-01T12:10:46;97998.44;;;11.50;78.45
7532;BME280;3807;49.030;8.714;2023-04-01T12:21:36;98007.19;;;11.74;78.68
7532;BME280;3807;49.030;8.714;2023-04-01T12:27:20;98008.59;;;11.94;77.47
7532;BME280;3807;49.030;8.714;2023-04-01T12:30:09;98016.12;;;11.53;79.37
7532;BME280;3807;49.030;8.714;2023-04-01T12:32:55;98006.53;;;11.28;79.96
7532;BME280;3807;49.030;8.714;2023-04-01T12:35:56;98013.53;;;11.38;79.21
7532;BME280;3807;49.030;8.714;2023-04-01T12:57:38;98019.50;;;11.09;81.12
7532;BME280;3807;49.030;8.714;2023-04-01T13:00:27;98018.38;;;10.83;82.29
7532;BME280;3807;49.030;8.714;2023-04-01T13:14:33;98036.75;;;11.04;81.99
7532;BME280;3807;49.030;8.714;2023-04-01T13:17:16;98032.41;;;11.50;80.90
7532;BME280;3807;49.030;8.714;2023-04-01T13:20:02;98041.06;;;11.17;81.16
7532;BME280;3807;49.030;8.714;2023-04-01T13:22:47;98045.41;;;11.15;81.66
7532;BME280;3807;49.030;8.714;2023-04-01T13:28:25;98052.91;;;11.18;81.68
7532;BME280;3807;49.030;8.714;2023-04-01T13:34:22;98057.56;;;10.96;82.40
7532;BME280;3807;49.030;8.714;2023-04-01T13:37:25;98053.28;;;10.96;82.60
7532;BME280;3807;49.030;8.714;2023-04-01T13:42:53;98044.94;;;10.79;83.68
7532;BME280;3807;49.030;8.714;2023-04-01T13:51:57;98056.69;;;10.81;82.96
7532;BME280;3807;49.030;8.714;2023-04-01T14:05:50;98067.81;;;11.10;82.86
7532;BME280;3807;49.030;8.714;2023-04-01T14:11:45;98065.81;;;11.15;81.38
7532;BME280;3807;49.030;8.714;2023-04-01T14:14:20;98054.97;;;11.42;80.51
7532;BME280;3807;49.030;8.714;2023-04-01T14:19:46;98058.00;;;11.49;80.05
7532;BME280;3807;49.030;8.714;2023-04-01T14:28:11;98062.09;;;11.51;79.89
7532;BME280;3807;49.030;8.714;2023-04-01T14:33:31;98074.03;;;11.51;79.16
7532;BME280;3807;49.030;8.714;2023-04-01T14:36:21;98064.75;;;11.64;78.57
7532;BME280;3807;49.030;8.714;2023-04-01T14:38:59;98076.72;;;11.33;80.22
7532;BME280;3807;49.030;8.714;2023-04-01T14:41:47;98071.03;;;11.28;79.46
7532;BME280;3807;49.030;8.714;2023-04-01T14:47:15;98079.69;;;11.56;78.95
7532;BME280;3807;49.030;8.714;2023-04-01T14:49:47;98077.38;;;11.37;79.82
7532;BME280;3807;49.030;8.714;2023-04-01T14:52:17;98072.59;;;11.31;80.91
7532;BME280;3807;49.030;8.714;2023-04-01T14:54:48;98079.06;;;11.36;79.78
7532;BME280;3807;49.030;8.714;2023-04-01T14:57:15;98071.00;;;11.44;79.89
7532;BME280;3807;49.030;8.714;2023-04-01T15:00:14;98082.97;;;11.28;81.61
7532;BME280;3807;49.030;8.714;2023-04-01T15:05:10;98071.16;;;11.27;80.80
7532;BME280;3807;49.030;8.714;2023-04-01T15:08:05;98077.78;;;11.29;81.36
7532;BME280;3807;49.030;8.714;2023-04-01T15:10:53;98078.22;;;11.21;81.13
7532;BME280;3807;49.030;8.714;2023-04-01T15:16:25;98080.78;;;11.66;79.66
7532;BME280;3807;49.030;8.714;2023-04-01T15:19:14;98074.78;;;11.07;81.42
7532;BME280;3807;49.030;8.714;2023-04-01T15:21:54;98066.75;;;11.29;80.01
7532;BME280;3807;49.030;8.714;2023-04-01T15:35:37;98082.88;;;11.29;79.87
7532;BME280;3807;49.030;8.714;2023-04-01T15:38:24;98082.88;;;11.29;79.51
7532;BME280;3807;49.030;8.714;2023-04-01T15:43:49;98097.47;;;11.72;77.89
7532;BME280;3807;49.030;8.714;2023-04-01T15:46:24;98087.75;;;11.18;79.48
7532;BME280;3807;49.030;8.714;2023-04-01T15:57:40;98098.47;;;11.69;77.04
7532;BME280;3807;49.030;8.714;2023-04-01T16:00:34;98104.25;;;11.57;76.89
7532;BME280;3807;49.030;8.714;2023-04-01T16:12:01;98119.50;;;11.73;75.71
7532;BME280;3807;49.030;8.714;2023-04-01T16:14:40;98112.91;;;11.84;75.70
7532;BME280;3807;49.030;8.714;2023-04-01T16:22:45;98115.28;;;11.27;77.05
7532;BME280;3807;49.030;8.714;2023-04-01T16:25:36;98122.69;;;11.62;75.89
7532;BME280;3807;49.030;8.714;2023-04-01T16:30:57;98120.38;;;11.87;75.11
7532;BME280;3807;49.030;8.714;2023-04-01T16:36:00;98126.25;;;11.74;75.47
7532;BME280;3807;49.030;8.714;2023-04-01T16:38:37;98129.41;;;11.63;75.53
7532;BME280;3807;49.030;8.714;2023-04-01T16:49:17;98129.16;;;11.82;74.92
7532;BME280;3807;49.030;8.714;2023-04-01T16:56:50;98138.94;;;11.75;75.09
7532;BME280;3807;49.030;8.714;2023-04-01T17:00:02;98134.78;;;11.88;74.50
7532;BME280;3807;49.030;8.714;2023-04-01T17:04:59;98152.12;;;11.82;74.88
7532;BME280;3807;49.030;8.714;2023-04-01T17:20:53;98171.44;;;11.10;78.16
7532;BME280;3807;49.030;8.714;2023-04-01T17:23:33;98186.06;;;11.06;78.71
7532;BME280;3807;49.030;8.714;2023-04-01T17:39:24;98194.94;;;10.99;78.96
7532;BME280;3807;49.030;8.714;2023-04-01T17:49:39;98221.09;;;11.34;77.01
7532;BME280;3807;49.030;8.714;2023-04-01T17:52:32;98216.63;;;11.22;77.11
7532;BME280;3807;49.030;8.714;2023-04-01T17:57:50;98226.75;;;11.39;76.34
7532;BME280;3807;49.030;8.714;2023-04-01T18:08:23;98225.34;;;11.18;76.33
7532;BME280;3807;49.030;8.714;2023-04-01T18:11:09;98224.19;;;11.08;76.86
7532;BME280;3807;49.030;8.714;2023-04-01T18:21:47;98235.19;;;11.08;76.71
7532;BME280;3807;49.030;8.714;2023-04-01T18:24:41;98244.59;;;11.39;75.27
7532;BME280;3807;49.030;8.714;2023-04-01T18:27:50;98254.63;;;11.42;74.82
7532;BME280;3807;49.030;8.714;2023-04-01T18:30:35;98245.25;;;11.43;74.40
7532;BME280;3807;49.030;8.714;2023-04-01T18:36:08;98247.47;;;11.33;74.74
7532;BME280;3807;49.030;8.714;2023-04-01T18:38:45;98262.06;;;10.98;76.02
7532;BME280;3807;49.030;8.714;2023-04-01T18:41:21;98254.19;;;11.03;76.17
7532;BME280;3807;49.030;8.714;2023-04-01T18:44:11;98269.38;;;11.04;76.01
7532;BME280;3807;49.030;8.714;2023-04-01T18:46:50;98265.47;;;10.99;76.18
7532;BME280;3807;49.030;8.714;2023-04-01T18:49:33;98265.63;;;10.95;76.21
7532;BME280;3807;49.030;8.714;2023-04-01T18:57:42;98272.69;;;11.22;74.87
7532;BME280;3807;49.030;8.714;2023-04-01T19:00:20;98281.81;;;11.26;74.90
7532;BME280;3807;49.030;8.714;2023-04-01T19:03:07;98274.25;;;11.09;75.35
7532;BME280;3807;49.030;8.714;2023-04-01T19:05:38;98285.16;;;10.95;75.91
7532;BME280;3807;49.030;8.714;2023-04-01T19:08:22;98294.34;;;10.97;75.78
7532;BME280;3807;49.030;8.714;2023-04-01T19:14:39;98304.59;;;11.61;72.95
7532;BME280;3807;49.030;8.714;2023-04-01T19:22:51;98314.50;;;11.51;73.26
7532;BME280;3807;49.030;8.714;2023-04-01T19:25:30;98322.28;;;11.32;73.65
7532;BME280;3807;49.030;8.714;2023-04-01T19:30:50;98321.81;;;11.08;74.21
7532;BME280;3807;49.030;8.714;2023-04-01T19:36:19;98323.16;;;11.15;74.46
7532;BME280;3807;49.030;8.714;2023-04-01T19:44:41;98323.87;;;11.51;72.72
7532;BME280;3807;49.030;8.714;2023-04-01T19:47:37;98318.97;;;11.14;74.23
7532;BME280;3807;49.030;8.714;2023-04-01T19:50:27;98326.25;;;11.38;73.09
7532;BME280;3807;49.030;8.714;2023-04-01T19:52:58;98330.53;;;11.04;74.75
7532;BME280;3807;49.030;8.714;2023-04-01T20:00:51;98341.16;;;10.79;75.89
7532;BME280;3807;49.030;8.714;2023-04-01T20:06:11;98337.88;;;11.26;73.60
7532;BME280;3807;49.030;8.714;2023-04-01T20:08:51;98347.81;;;11.48;72.57
7532;BME280;3807;49.030;8.714;2023-04-01T20:14:07;98346.69;;;10.70;76.10
7532;BME280;3807;49.030;8.714;2023-04-01T20:19:26;98356.50;;;10.95;75.02
7532;BME280;3807;49.030;8.714;2023-04-01T20:21:56;98354.00;;;10.93;74.89
7532;BME280;3807;49.030;8.714;2023-04-01T20:24:28;98352.72;;;11.02;74.46
7532;BME280;3807;49.030;8.714;2023-04-01T20:27:14;98354.31;;;10.87;74.95
7532;BME280;3807;49.030;8.714;2023-04-01T20:33:00;98362.28;;;11.14;73.86
7532;BME280;3807;49.030;8.714;2023-04-01T20:35:49;98355.28;;;11.02;74.29
7532;BME280;3807;49.030;8.714;2023-04-01T20:38:58;98358.19;;;10.94;74.67
7532;BME280;3807;49.030;8.714;2023-04-01T20:44:25;98369.00;;;11.00;74.54
7532;BME280;3807;49.030;8.714;2023-04-01T20:49:54;98374.22;;;10.96;74.54
7532;BME280;3807;49.030;8.714;2023-04-01T20:52:32;98370.34;;;10.89;74.80
7532;BME280;3807;49.030;8.714;2023-04-01T20:58:24;98382.81;;;11.11;73.86
7532;BME280;3807;49.030;8.714;2023-04-01T21:01:10;98383.88;;;11.07;74.05
7532;BME280;3807;49.030;8.714;2023-04-01T21:03:44;98383.63;;;10.79;75.18
7532;BME280;3807;49.030;8.714;2023-04-01T21:09:21;98391.94;;;10.82;75.20
7532;BME280;3807;49.030;8.714;2023-04-01T21:14:56;98400.53;;;10.97;74.40
7532;BME280;3807;49.030;8.714;2023-04-01T21:20:37;98403.50;;;11.05;74.05
7532;BME280;3807;49.030;8.714;2023-04-01T21:23:31;98403.47;;;10.89;74.58
7532;BME280;3807;49.030;8.714;2023-04-01T21:26:03;98406.22;;;11.02;74.11
7532;BME280;3807;49.030;8.714;2023-04-01T21:36:59;98413.66;;;10.89;74.54
7532;BME280;3807;49.030;8.714;2023-04-01T21:47:53;98422.34;;;11.03;73.87
7532;BME280;3807;49.030;8.714;2023-04-01T22:01:05;98447.81;;;10.68;74.79
7532;BME280;3807;49.030;8.714;2023-04-01T22:07:11;98446.22;;;11.00;73.72
7532;BME280;3807;49.030;8.714;2023-04-01T22:09:33;98453.19;;;11.14;73.01
7532;BME280;3807;49.030;8.714;2023-04-01T22:15:03;98450.66;;;10.79;74.35
7532;BME280;3807;49.030;8.714;2023-04-01T22:20:28;98449.84;;;10.96;73.97
7532;BME280;3807;49.030;8.714;2023-04-01T22:23:29;98455.59;;;11.00;73.96
7532;BME280;3807;49.030;8.714;2023-04-01T22:26:02;98449.59;;;10.83;74.25
7532;BME280;3807;49.030;8.714;2023-04-01T22:28:38;98456.44;;;11.00;73.59
7532;BME280;3807;49.030;8.714;2023-04-01T22:31:08;98448.53;;;10.70;74.65
7532;BME280;3807;49.030;8.714;2023-04-01T22:33:53;98454.78;;;10.99;73.46
7532;BME280;3807;49.030;8.714;2023-04-01T22:44:02;98455.16;;;10.91;73.67
7532;BME280;3807;49.030;8.714;2023-04-01T22:49:12;98457.75;;;10.90;73.65
7532;BME280;3807;49.030;8.714;2023-04-01T22:57:00;98464.16;;;10.99;73.09